Aeroporto :
LOGIN :

Iscrizione | Disclaimer

   EN    FR    IT 

 










Sommario :    VFR   VFR Marginale   IFR   IFR Intensivo   IFR Molto Intensivo
Visibilità : 
Base nubi : 
>= 8 km
>= 3000ft
5 / 8 km
1000 / 3000 ft
1500m / 5 km
500 / 1000 ft
800 / 1500m
200 / 500 ft
< 800m
< 200 ft
Simboli :   Temporali  Nebbia  Neve Forte  Precipitazioni Forti  Vento > 20 kt
SIGMETs :   Varie  Temporali  Ghiacco  Turbolenza  Onda orograficha  Ceneri Vulcaniche







- Altitudine del aeroporto : 291 ft
- Codice IATA : ORY
- Carte del aeroporto


LFPO - Paris-Orly

ULTIMO METAR :
  • 181400Z 21009KT 9999 R08/1400U -TSRA FEW026 FEW033CB BKN090 20/17 Q1016 TEMPO 4000 TSRA

METARs OBSOLETI :
  • 181330Z 22011KT 190V250 9999 FEW026 FEW033CB BKN090 21/17 Q1016 TEMPO 4000 TSRA
  • 181300Z 23010KT 9999 FEW032 BKN120 21/17 Q1016 TEMPO SCT070CB
  • 181241Z 24009KT 9999 FEW032 BKN120 21/17 Q1016 TEMPO SCT070CB
  • 181200Z 25011KT 9999 -SHRA FEW031TCU BKN100 21/17 Q1016 TEMPO SCT070CB
  • 181130Z 21009KT 190V250 9999 -SHRA FEW031TCU SCT060 BKN100 24/16 Q1016 TEMPO SCT070CB

TAF AMD TAF LFPO
Valido dal 18 a 13 ore il 19 a 18 ore UTC


181321Z 1813/1918 22010KT CAVOK
PROB40
TEMPO 1813/1816 21015G25KT 3000 -TSRA SCT035 SCT070CB
PROB30
TEMPO 1904/1909 BKN012
ATIS : +33 1 49 75 65 80
Nessun NOTAM noto per questo aeroporto.
1 SIGMET conosciuto per la FIR Paris (LFFF) :
 
Temporali affogati
LFFF SIGMET 1 VALID 181330/181500 LFPW
LFFF PARIS FIR/UIR EMBD TS OBS WI N4800 E00145 - N4800 E00115 - N4915 E00300 - N4845 E00300 - N4800 E00145 TOP FL320 MOV NE 20KT NC=



MetMap, La meteo Aeronautica in un colpo d'occhio ! - Copyright ORBIFLY Dicembre 2007 - Disclaimer

ORBIFLY MET'MAP TEAM :

Programmazione e sviluppo : Alexandra Zaïnal
Concezione e sviluppo : Baudouin d'Aumeries
Co-Programmazione e sviluppo : Marc-Olivier Méhu
Supporto tecnico e logistico : Manuel Goepfert
Aiuto per la traduzione : Arnaldo La Scala

Contatto : metmap@orbifly.com




FONTI E CREDITI :

   NOAA